createdAt,value
2023-02-21T00:00:41.292Z,8.70
2023-02-21T00:03:26.541Z,10.60
2023-02-21T00:06:12.205Z,10.10
2023-02-21T00:08:57.722Z,8.65
2023-02-21T00:11:42.916Z,9.93
2023-02-21T00:14:28.594Z,10.32
2023-02-21T00:17:13.900Z,10.40
2023-02-21T00:19:59.994Z,8.15
2023-02-21T00:22:45.288Z,10.32
2023-02-21T00:25:30.781Z,9.63
2023-02-21T00:28:16.105Z,8.73
2023-02-21T00:31:01.663Z,9.32
2023-02-21T00:33:46.986Z,8.85
2023-02-21T00:36:35.827Z,9.07
2023-02-21T00:39:21.607Z,8.98
2023-02-21T00:42:06.952Z,9.60
2023-02-21T00:44:52.283Z,8.13
2023-02-21T00:47:37.416Z,7.90
2023-02-21T00:50:23.416Z,8.68
2023-02-21T00:53:08.766Z,8.88
2023-02-21T00:55:54.113Z,8.80
2023-02-21T00:58:42.681Z,8.63
2023-02-21T01:01:28.057Z,8.23
2023-02-21T01:04:13.542Z,9.00
2023-02-21T01:06:58.820Z,7.90
2023-02-21T01:09:44.230Z,7.68
2023-02-21T01:12:29.713Z,9.15
2023-02-21T01:15:15.468Z,7.93
2023-02-21T01:18:01.283Z,7.60
2023-02-21T01:20:46.598Z,7.90
2023-02-21T01:23:32.005Z,7.30
2023-02-21T01:26:17.360Z,6.95
2023-02-21T01:29:02.687Z,7.13
2023-02-21T01:31:48.016Z,7.13
2023-02-21T01:34:35.977Z,7.22
2023-02-21T01:37:21.398Z,7.90
2023-02-21T01:40:06.735Z,6.68
2023-02-21T01:42:51.955Z,7.28
2023-02-21T01:45:40.621Z,7.50
2023-02-21T01:48:31.531Z,7.38
2023-02-21T01:51:17.821Z,6.82
2023-02-21T01:54:04.241Z,6.95
2023-02-21T01:56:50.688Z,7.50
2023-02-21T01:59:38.424Z,8.20
2023-02-21T02:02:35.782Z,7.22
2023-02-21T02:05:23.960Z,7.68
2023-02-21T02:08:10.665Z,7.47
2023-02-21T02:10:55.994Z,9.48
2023-02-21T02:13:52.116Z,9.00
2023-02-21T02:16:45.693Z,8.15
2023-02-21T02:19:21.287Z,8.00
2023-02-21T02:22:19.292Z,7.50
2023-02-21T02:25:09.060Z,7.03
2023-02-21T02:27:51.373Z,8.57
2023-02-21T02:31:10.685Z,8.00
2023-02-21T02:34:09.586Z,7.10
2023-02-21T02:36:44.210Z,7.30
2023-02-21T02:39:39.840Z,7.20
2023-02-21T02:42:27.998Z,7.00
2023-02-21T02:45:05.677Z,7.32
2023-02-21T02:47:36.541Z,8.55
2023-02-21T02:50:06.800Z,6.50
2023-02-21T02:52:35.520Z,8.80
2023-02-21T02:55:05.961Z,8.57
2023-02-21T02:57:40.843Z,7.65
2023-02-21T03:00:10.767Z,9.68
2023-02-21T03:03:00.820Z,8.40
2023-02-21T03:06:11.817Z,7.38
2023-02-21T03:08:38.563Z,7.93
2023-02-21T03:11:21.660Z,9.05
2023-02-21T03:14:05.176Z,8.93
2023-02-21T03:16:39.298Z,8.88
2023-02-21T03:19:13.847Z,8.65
2023-02-21T03:21:47.967Z,7.95
2023-02-21T03:24:17.274Z,8.35
2023-02-21T03:26:48.560Z,7.60
2023-02-21T03:29:17.308Z,10.23
2023-02-21T03:31:49.778Z,8.23
2023-02-21T03:34:16.794Z,7.90
2023-02-21T03:36:44.663Z,8.45
2023-02-21T03:39:11.479Z,7.22
2023-02-21T03:41:38.302Z,8.48
2023-02-21T03:44:05.281Z,7.35
2023-02-21T03:46:32.385Z,8.43
2023-02-21T03:48:59.202Z,8.70
2023-02-21T03:51:26.054Z,8.63
2023-02-21T03:53:52.845Z,8.90
2023-02-21T03:56:19.753Z,8.90
2023-02-21T03:58:46.585Z,8.60
2023-02-21T04:01:13.788Z,8.65
2023-02-21T04:03:40.878Z,8.80
2023-02-21T04:06:07.716Z,8.45
2023-02-21T04:08:34.643Z,8.65
2023-02-21T04:11:01.480Z,9.75
2023-02-21T04:13:28.236Z,8.88
2023-02-21T04:15:58.182Z,9.43
2023-02-21T04:18:25.121Z,9.32
2023-02-21T04:20:52.152Z,9.20
2023-02-21T04:23:20.097Z,8.52
2023-02-21T04:25:47.368Z,8.73
2023-02-21T04:28:14.345Z,8.40
2023-02-21T04:30:41.178Z,9.75
2023-02-21T04:33:08.234Z,9.50
2023-02-21T04:35:35.046Z,9.70
2023-02-21T04:38:01.866Z,9.10
2023-02-21T04:40:28.673Z,9.38
2023-02-21T04:42:55.697Z,8.95
2023-02-21T04:45:22.531Z,11.15
2023-02-21T04:47:49.333Z,9.77
2023-02-21T04:50:16.243Z,8.65
2023-02-21T04:52:43.163Z,9.70
2023-02-21T04:55:10.010Z,9.73
2023-02-21T04:57:36.928Z,9.95
2023-02-21T05:00:07.314Z,9.88
2023-02-21T05:02:34.487Z,9.80
2023-02-21T05:05:01.452Z,8.55
2023-02-21T05:07:28.332Z,10.38
2023-02-21T05:09:55.160Z,7.95
2023-02-21T05:12:21.924Z,9.35
2023-02-21T05:14:48.752Z,8.13
2023-02-21T05:17:15.589Z,10.18
2023-02-21T05:19:42.442Z,10.05
2023-02-21T05:22:09.306Z,9.73
2023-02-21T05:24:42.597Z,10.55
2023-02-21T05:27:15.854Z,9.70
2023-02-21T05:29:46.372Z,8.95
2023-02-21T05:32:13.328Z,10.65
2023-02-21T05:34:44.353Z,9.70
2023-02-21T05:37:12.493Z,11.23
2023-02-21T05:39:39.504Z,10.68
2023-02-21T05:42:07.775Z,10.10
2023-02-21T05:44:34.847Z,9.48
2023-02-21T05:47:07.405Z,9.40
2023-02-21T05:49:34.366Z,9.68
2023-02-21T05:52:01.207Z,9.77
2023-02-21T05:54:28.309Z,9.35
2023-02-21T05:56:57.810Z,9.45
2023-02-21T05:59:24.961Z,9.95
2023-02-21T06:01:51.948Z,8.57
2023-02-21T06:04:19.241Z,8.65
2023-02-21T06:06:46.258Z,10.25
2023-02-21T06:09:13.143Z,10.13
2023-02-21T06:11:40.465Z,10.27
2023-02-21T06:14:13.896Z,9.40
2023-02-21T06:16:40.752Z,9.25
2023-02-21T06:19:09.087Z,10.07
2023-02-21T06:21:36.068Z,10.23
2023-02-21T06:24:03.827Z,9.77
2023-02-21T06:26:30.897Z,9.85
2023-02-21T06:28:57.827Z,8.93
2023-02-21T06:31:24.951Z,11.35
2023-02-21T06:33:52.121Z,10.30
2023-02-21T06:36:22.567Z,9.43
2023-02-21T06:38:51.985Z,9.38
2023-02-21T06:41:20.854Z,10.07
2023-02-21T06:43:47.787Z,9.02
2023-02-21T06:46:19.697Z,10.82
2023-02-21T06:48:46.633Z,11.05
2023-02-21T06:51:14.845Z,9.32
2023-02-21T06:53:42.813Z,9.82
2023-02-21T06:56:10.281Z,8.80
2023-02-21T06:58:37.226Z,11.13
2023-02-21T07:01:04.470Z,9.75
2023-02-21T07:03:31.314Z,9.52
2023-02-21T07:05:58.170Z,10.82
2023-02-21T07:08:26.212Z,10.30
2023-02-21T07:10:53.203Z,10.13
2023-02-21T07:13:22.435Z,8.98
2023-02-21T07:15:49.570Z,10.00
2023-02-21T07:18:16.406Z,10.68
2023-02-21T07:20:43.306Z,8.93
2023-02-21T07:23:10.330Z,10.25
2023-02-21T07:25:37.209Z,10.98
2023-02-21T07:28:04.512Z,9.80
2023-02-21T07:30:31.916Z,9.65
2023-02-21T07:32:59.290Z,10.13
2023-02-21T07:35:26.194Z,11.18
2023-02-21T07:37:53.172Z,11.40
2023-02-21T07:40:20.093Z,9.57
2023-02-21T07:42:48.074Z,11.20
2023-02-21T07:45:16.746Z,10.38
2023-02-21T07:47:47.846Z,12.30
2023-02-21T07:50:16.753Z,10.75
2023-02-21T07:52:45.263Z,11.65
2023-02-21T07:55:13.488Z,11.20
2023-02-21T07:57:40.310Z,11.27
2023-02-21T08:00:07.913Z,12.65
2023-02-21T08:02:34.745Z,10.75
2023-02-21T08:05:01.652Z,11.93
2023-02-21T08:07:30.166Z,10.95
2023-02-21T08:09:57.030Z,12.95
2023-02-21T08:12:23.829Z,11.23
2023-02-21T08:14:50.617Z,10.90
2023-02-21T08:17:17.667Z,11.32
2023-02-21T08:19:44.504Z,9.73
2023-02-21T08:22:11.630Z,10.57
2023-02-21T08:24:38.485Z,11.57
2023-02-21T08:27:05.282Z,11.95
2023-02-21T08:29:32.093Z,11.07
2023-02-21T08:31:59.195Z,11.55
2023-02-21T08:34:26.110Z,11.65
2023-02-21T08:36:52.921Z,12.52
2023-02-21T08:39:19.828Z,13.48
2023-02-21T08:41:48.608Z,13.32
2023-02-21T08:44:17.607Z,12.65
2023-02-21T08:46:45.022Z,12.48
2023-02-21T08:49:11.854Z,13.85
2023-02-21T08:51:40.263Z,13.00
2023-02-21T08:54:07.542Z,13.23
2023-02-21T08:56:35.001Z,14.18
2023-02-21T08:59:03.687Z,12.75
2023-02-21T09:01:33.345Z,12.05
2023-02-21T09:04:00.558Z,12.32
2023-02-21T09:06:27.396Z,10.93
2023-02-21T09:08:54.351Z,12.90
2023-02-21T09:11:21.202Z,12.23
2023-02-21T09:13:48.083Z,11.93
2023-02-21T09:16:15.274Z,13.10
2023-02-21T09:18:42.199Z,12.07
2023-02-21T09:21:09.166Z,11.77
2023-02-21T09:23:36.201Z,13.90
2023-02-21T09:26:03.094Z,12.85
2023-02-21T09:28:31.582Z,12.32
2023-02-21T09:30:58.627Z,12.88
2023-02-21T09:33:25.714Z,12.27
2023-02-21T09:35:54.031Z,11.50
2023-02-21T09:38:21.126Z,11.60
2023-02-21T09:40:58.846Z,12.13
2023-02-21T09:43:33.914Z,12.45
2023-02-21T09:46:21.955Z,13.07
2023-02-21T09:48:49.477Z,12.85
2023-02-21T09:51:17.500Z,11.95
2023-02-21T09:53:47.472Z,13.05
2023-02-21T09:56:35.470Z,12.15
2023-02-21T09:59:02.325Z,12.65
2023-02-21T10:01:44.158Z,13.93
2023-02-21T10:04:18.540Z,13.13
2023-02-21T10:09:57.437Z,12.90
2023-02-21T10:12:36.038Z,14.05
2023-02-21T10:15:15.168Z,14.52
2023-02-21T10:17:58.093Z,13.65
2023-02-21T10:20:37.238Z,11.90
2023-02-21T10:23:11.949Z,13.10
2023-02-21T10:25:46.031Z,13.40
2023-02-21T10:28:22.636Z,12.32
2023-02-21T10:30:55.131Z,12.25
2023-02-21T10:33:22.168Z,12.50
2023-02-21T10:35:49.027Z,13.45
2023-02-21T10:38:26.247Z,13.13
2023-02-21T10:40:57.297Z,11.80
2023-02-21T10:43:48.463Z,14.30
2023-02-21T10:46:34.390Z,11.95
2023-02-21T10:49:30.662Z,13.60
2023-02-21T10:52:21.232Z,12.80
2023-02-21T10:55:23.049Z,14.45
2023-02-21T10:57:59.729Z,12.98
2023-02-21T11:00:30.412Z,11.93
2023-02-21T11:03:04.513Z,12.98
2023-02-21T11:05:32.048Z,11.70
2023-02-21T11:08:08.810Z,12.95
2023-02-21T11:10:45.023Z,12.82
2023-02-21T11:13:17.013Z,13.57
2023-02-21T11:15:45.534Z,12.95
2023-02-21T11:18:14.246Z,12.02
2023-02-21T11:20:41.197Z,12.15
2023-02-21T11:23:27.084Z,13.80
2023-02-21T11:26:13.111Z,12.60
2023-02-21T11:28:43.540Z,13.15
2023-02-21T11:31:29.573Z,13.25
2023-02-21T11:34:08.718Z,13.88
2023-02-21T11:36:38.466Z,14.05
2023-02-21T11:39:21.802Z,12.50
2023-02-21T11:41:54.025Z,11.88
2023-02-21T11:44:35.208Z,13.85
2023-02-21T11:47:25.308Z,12.07
2023-02-21T11:50:09.747Z,13.52
2023-02-21T11:52:44.223Z,14.93
2023-02-21T11:55:16.829Z,13.77
2023-02-21T11:58:01.353Z,13.55
2023-02-21T12:00:42.217Z,13.05
2023-02-21T12:03:31.021Z,12.95
2023-02-21T12:06:21.135Z,13.60
2023-02-21T12:08:50.626Z,13.30
2023-02-21T12:11:26.443Z,13.70
2023-02-21T12:14:30.993Z,12.38
2023-02-21T12:17:20.597Z,12.95
2023-02-21T12:20:06.358Z,13.52
2023-02-21T12:22:42.206Z,12.20
2023-02-21T12:25:21.489Z,12.07
2023-02-21T12:28:03.365Z,11.70
2023-02-21T12:31:11.778Z,10.55
2023-02-21T12:33:55.557Z,12.70
2023-02-21T12:36:40.464Z,12.43
2023-02-21T12:39:32.458Z,11.52
2023-02-21T12:42:21.214Z,11.77
2023-02-21T12:44:53.797Z,12.35
2023-02-21T12:47:28.563Z,10.52
2023-02-21T12:50:28.985Z,10.15
2023-02-21T12:53:14.132Z,11.45
2023-02-21T12:55:46.161Z,11.05
2023-02-21T12:58:30.401Z,12.95
2023-02-21T13:01:21.378Z,12.70
2023-02-21T13:04:11.519Z,13.20
2023-02-21T13:06:53.409Z,11.85
2023-02-21T13:09:41.209Z,14.70
2023-02-21T13:12:19.540Z,13.27
2023-02-21T13:15:01.156Z,11.90
2023-02-21T13:17:28.225Z,13.80
2023-02-21T13:20:19.871Z,14.02
2023-02-21T13:23:04.812Z,12.98
2023-02-21T13:25:57.667Z,13.55
2023-02-21T13:28:27.606Z,12.85
2023-02-21T13:31:00.240Z,13.40
2023-02-21T13:33:28.967Z,13.68
2023-02-21T13:36:00.631Z,14.75
2023-02-21T13:38:30.963Z,13.25
2023-02-21T13:41:10.502Z,12.18
2023-02-21T13:43:51.149Z,12.48
2023-02-21T13:46:30.387Z,12.68
2023-02-21T13:49:34.896Z,13.02
2023-02-21T13:52:20.148Z,13.45
2023-02-21T13:55:14.023Z,11.77
2023-02-21T13:57:49.180Z,11.68
2023-02-21T14:00:24.845Z,13.48
2023-02-21T14:03:09.717Z,11.77
2023-02-21T14:05:50.202Z,12.55
2023-02-21T14:08:32.015Z,13.35
2023-02-21T14:11:07.835Z,12.73
2023-02-21T14:13:54.646Z,12.70
2023-02-21T14:16:46.342Z,12.27
2023-02-21T14:19:39.076Z,11.27
2023-02-21T14:22:16.294Z,13.63
2023-02-21T14:24:49.990Z,13.18
2023-02-21T14:27:16.751Z,13.13
2023-02-21T14:29:43.759Z,12.10
2023-02-21T14:32:10.984Z,12.38
2023-02-21T14:34:40.852Z,12.07
2023-02-21T14:37:19.459Z,11.15
2023-02-21T14:39:52.363Z,10.80
2023-02-21T14:42:38.044Z,12.68
2023-02-21T14:45:20.137Z,12.88
2023-02-21T14:48:05.345Z,12.82
2023-02-21T14:50:36.907Z,12.50
2023-02-21T14:53:41.057Z,12.13
2023-02-21T14:56:30.912Z,12.38
2023-02-21T14:59:19.763Z,13.05
2023-02-21T15:02:03.018Z,12.48
2023-02-21T15:04:29.869Z,13.95
2023-02-21T15:07:26.125Z,13.77
2023-02-21T15:10:23.449Z,13.48
2023-02-21T15:12:53.678Z,13.18
2023-02-21T15:15:28.496Z,13.60
2023-02-21T15:18:22.933Z,11.75
2023-02-21T15:21:04.708Z,14.57
2023-02-21T15:23:32.445Z,14.55
2023-02-21T15:26:03.023Z,13.13
2023-02-21T15:28:31.751Z,14.38
2023-02-21T15:31:02.645Z,13.88
2023-02-21T15:33:41.148Z,12.95
2023-02-21T15:36:17.172Z,13.43
2023-02-21T15:39:11.857Z,13.85
2023-02-21T15:41:43.053Z,13.73
2023-02-21T15:44:21.025Z,15.63
2023-02-21T15:47:01.538Z,13.30
2023-02-21T15:49:32.780Z,12.75
2023-02-21T15:52:02.004Z,12.57
2023-02-21T15:54:34.315Z,13.10
2023-02-21T15:57:23.882Z,11.95
2023-02-21T16:00:18.930Z,12.75
2023-02-21T16:02:46.009Z,13.70
2023-02-21T16:05:30.287Z,14.48
2023-02-21T16:08:04.769Z,13.60
2023-02-21T16:10:32.698Z,15.18
2023-02-21T16:13:02.061Z,16.15
2023-02-21T16:15:35.586Z,17.38
2023-02-21T16:18:11.278Z,16.07
2023-02-21T16:20:40.907Z,13.60
2023-02-21T16:23:23.997Z,15.18
2023-02-21T16:26:01.820Z,14.20
2023-02-21T16:28:32.881Z,14.80
2023-02-21T16:31:02.790Z,13.88
2023-02-21T16:33:30.376Z,12.27
2023-02-21T16:35:58.061Z,13.10
2023-02-21T16:38:26.017Z,14.45
2023-02-21T16:40:53.555Z,13.15
2023-02-21T16:43:26.373Z,16.25
2023-02-21T16:45:58.369Z,12.38
2023-02-21T16:48:33.445Z,13.02
2023-02-21T16:51:04.888Z,13.00
2023-02-21T16:53:32.125Z,13.52
2023-02-21T16:56:01.254Z,12.30
2023-02-21T16:58:30.708Z,14.77
2023-02-21T17:01:03.677Z,13.60
2023-02-21T17:03:30.745Z,14.95
2023-02-21T17:05:59.974Z,11.02
2023-02-21T17:08:28.278Z,12.07
2023-02-21T17:10:56.743Z,12.55
2023-02-21T17:13:24.298Z,14.38
2023-02-21T17:15:53.984Z,13.93
2023-02-21T17:18:21.563Z,14.18
2023-02-21T17:20:48.637Z,14.55
2023-02-21T17:23:15.700Z,13.98
2023-02-21T17:25:43.532Z,15.85
2023-02-21T17:28:10.427Z,14.68
2023-02-21T17:30:37.410Z,13.32
2023-02-21T17:33:05.172Z,14.18
2023-02-21T17:35:32.112Z,14.23
2023-02-21T17:38:01.761Z,13.98
2023-02-21T17:40:29.541Z,13.70
2023-02-21T17:42:57.221Z,14.18
2023-02-21T17:45:26.223Z,13.88
2023-02-21T17:47:54.901Z,14.10
2023-02-21T17:50:21.827Z,13.57
2023-02-21T17:52:49.035Z,12.20
2023-02-21T17:55:26.045Z,12.88
2023-02-21T17:57:53.610Z,11.40
2023-02-21T18:00:26.723Z,11.68
2023-02-21T18:02:55.256Z,13.57
2023-02-21T18:05:23.046Z,12.85
2023-02-21T18:07:51.758Z,12.10
2023-02-21T18:10:20.953Z,12.15
2023-02-21T18:12:50.858Z,12.52
2023-02-21T18:15:20.410Z,14.35
2023-02-21T18:17:47.570Z,12.43
2023-02-21T18:20:16.067Z,10.98
2023-02-21T18:22:43.517Z,12.93
2023-02-21T18:25:10.917Z,10.30
2023-02-21T18:27:37.793Z,11.25
2023-02-21T18:30:06.005Z,11.20
2023-02-21T18:32:33.076Z,11.00
2023-02-21T18:35:00.684Z,11.57
2023-02-21T18:37:27.888Z,10.70
2023-02-21T18:39:55.918Z,10.52
2023-02-21T18:42:24.090Z,13.90
2023-02-21T18:44:52.175Z,13.52
2023-02-21T18:47:19.807Z,12.68
2023-02-21T18:49:48.255Z,10.90
2023-02-21T18:52:16.252Z,10.88
2023-02-21T18:54:56.154Z,11.32
2023-02-21T18:57:23.628Z,10.60
2023-02-21T18:59:50.695Z,11.23
2023-02-21T19:02:19.576Z,10.95
2023-02-21T19:04:46.960Z,9.88
2023-02-21T19:07:16.890Z,11.43
2023-02-21T19:09:46.777Z,9.93
2023-02-21T19:12:14.488Z,11.13
2023-02-21T19:14:41.459Z,9.07
2023-02-21T19:17:09.268Z,9.93
2023-02-21T19:19:37.168Z,11.10
2023-02-21T19:22:05.140Z,11.15
2023-02-21T19:24:32.059Z,11.82
2023-02-21T19:26:59.238Z,10.10
2023-02-21T19:29:26.183Z,12.57
2023-02-21T19:31:54.113Z,10.65
2023-02-21T19:34:21.090Z,10.10
2023-02-21T19:36:48.883Z,9.80
2023-02-21T19:39:16.111Z,8.20
2023-02-21T19:41:43.057Z,9.55
2023-02-21T19:44:09.913Z,9.90
2023-02-21T19:46:36.800Z,10.13
2023-02-21T19:49:06.941Z,10.13
2023-02-21T19:51:34.232Z,10.15
2023-02-21T19:54:01.637Z,10.73
2023-02-21T19:56:28.671Z,9.65
2023-02-21T19:58:55.769Z,10.50
2023-02-21T20:01:25.244Z,9.38
2023-02-21T20:03:52.405Z,9.18
2023-02-21T20:06:19.503Z,10.75
2023-02-21T20:08:48.306Z,11.38
2023-02-21T20:11:17.838Z,9.57
2023-02-21T20:13:45.032Z,10.30
2023-02-21T20:16:15.434Z,11.05
2023-02-21T20:18:43.616Z,10.05
2023-02-21T20:21:10.561Z,10.18
2023-02-21T20:23:37.423Z,8.68
2023-02-21T20:26:04.398Z,10.55
2023-02-21T20:28:31.253Z,10.70
2023-02-21T20:30:58.558Z,10.00
2023-02-21T20:33:25.619Z,10.82
2023-02-21T20:35:52.963Z,10.13
2023-02-21T20:38:20.018Z,9.45
2023-02-21T20:40:47.552Z,10.10
2023-02-21T20:43:14.487Z,10.20
2023-02-21T20:45:41.558Z,10.93
2023-02-21T20:48:11.551Z,11.15
2023-02-21T20:50:39.114Z,11.45
2023-02-21T20:53:05.924Z,11.93
2023-02-21T20:55:32.946Z,11.35
2023-02-21T20:57:59.923Z,10.75
2023-02-21T21:00:30.467Z,13.20
2023-02-21T21:02:57.834Z,12.88
2023-02-21T21:05:26.298Z,13.85
2023-02-21T21:07:55.910Z,12.52
2023-02-21T21:10:24.147Z,11.32
2023-02-21T21:12:51.494Z,14.05
2023-02-21T21:15:20.434Z,12.57
2023-02-21T21:17:48.249Z,11.77
2023-02-21T21:20:18.000Z,9.07
2023-02-21T21:22:45.469Z,12.02
2023-02-21T21:25:12.970Z,10.85
2023-02-21T21:27:42.369Z,10.50
2023-02-21T21:30:14.611Z,9.82
2023-02-21T21:32:41.560Z,9.25
2023-02-21T21:35:08.748Z,10.13
2023-02-21T21:37:37.599Z,9.95
2023-02-21T21:40:16.496Z,9.68
2023-02-21T21:42:45.802Z,9.63
2023-02-21T21:45:18.706Z,8.88
2023-02-21T21:47:50.414Z,9.93
2023-02-21T21:50:19.625Z,9.23
2023-02-21T21:52:52.218Z,8.88
2023-02-21T21:55:25.641Z,8.63
2023-02-21T21:57:53.987Z,7.90
2023-02-21T22:00:23.706Z,8.13
2023-02-21T22:02:57.356Z,9.90
2023-02-21T22:05:30.385Z,11.18
2023-02-21T22:07:58.688Z,10.50
2023-02-21T22:10:26.755Z,9.52
2023-02-21T22:12:56.690Z,9.35
2023-02-21T22:15:26.186Z,8.18
2023-02-21T22:17:53.524Z,7.97
2023-02-21T22:20:28.335Z,8.07
2023-02-21T22:23:16.115Z,7.88
2023-02-21T22:25:43.159Z,7.47
2023-02-21T22:28:13.159Z,8.15
2023-02-21T22:30:40.951Z,6.93
2023-02-21T22:33:13.712Z,7.65
2023-02-21T22:35:41.548Z,7.78
2023-02-21T22:38:14.375Z,8.05
2023-02-21T22:40:42.098Z,7.68
2023-02-21T22:43:09.555Z,8.75
2023-02-21T22:45:37.722Z,9.88
2023-02-21T22:48:06.345Z,7.95
2023-02-21T22:50:36.948Z,9.10
2023-02-21T22:53:10.762Z,8.10
2023-02-21T22:55:38.041Z,8.93
2023-02-21T22:58:09.443Z,8.68
2023-02-21T23:00:37.744Z,9.68
2023-02-21T23:03:13.324Z,8.35
2023-02-21T23:05:49.637Z,7.57
2023-02-21T23:08:19.423Z,8.23
2023-02-21T23:10:47.248Z,9.65
2023-02-21T23:13:18.085Z,8.45
2023-02-21T23:15:46.523Z,9.88
2023-02-21T23:18:20.366Z,9.15
2023-02-21T23:20:48.671Z,7.80
2023-02-21T23:23:15.606Z,9.18
2023-02-21T23:25:42.453Z,7.50
2023-02-21T23:28:12.174Z,9.05
2023-02-21T23:30:41.264Z,8.65
2023-02-21T23:33:26.504Z,7.18
2023-02-21T23:35:55.418Z,9.43
2023-02-21T23:38:24.489Z,9.43
2023-02-21T23:40:56.396Z,9.68
2023-02-21T23:43:26.638Z,10.68
2023-02-21T23:45:53.731Z,11.52
2023-02-21T23:48:22.515Z,9.57
2023-02-21T23:50:50.314Z,10.13
2023-02-21T23:53:20.986Z,10.15
2023-02-21T23:55:48.925Z,9.05
2023-02-21T23:58:19.452Z,10.82
